sensor_id;sensor_type;location;lat;lon;timestamp;temperature;humidity
13231;DHT22;6681;53.254;10.398;2023-11-21T00:00:15;9.50;99.90
13231;DHT22;6681;53.254;10.398;2023-11-21T00:02:43;9.50;99.90
13231;DHT22;6681;53.254;10.398;2023-11-21T00:05:10;9.50;99.90
13231;DHT22;6681;53.254;10.398;2023-11-21T00:07:36;9.80;99.90
13231;DHT22;6681;53.254;10.398;2023-11-21T00:10:03;9.40;99.90
13231;DHT22;6681;53.254;10.398;2023-11-21T00:12:30;9.40;99.90
13231;DHT22;6681;53.254;10.398;2023-11-21T00:14:57;9.40;99.90
13231;DHT22;6681;53.254;10.398;2023-11-21T00:17:23;9.40;99.90
13231;DHT22;6681;53.254;10.398;2023-11-21T00:19:48;9.40;99.90
13231;DHT22;6681;53.254;10.398;2023-11-21T00:22:14;9.50;99.90
13231;DHT22;6681;53.254;10.398;2023-11-21T00:24:41;9.30;99.90
13231;DHT22;6681;53.254;10.398;2023-11-21T00:27:07;9.10;99.90
13231;DHT22;6681;53.254;10.398;2023-11-21T00:29:32;9.30;99.90
13231;DHT22;6681;53.254;10.398;2023-11-21T00:31:58;8.90;99.90
13231;DHT22;6681;53.254;10.398;2023-11-21T00:34:23;8.80;99.90
13231;DHT22;6681;53.254;10.398;2023-11-21T00:36:49;9.20;99.90
13231;DHT22;6681;53.254;10.398;2023-11-21T00:39:17;8.70;99.90
13231;DHT22;6681;53.254;10.398;2023-11-21T00:41:43;8.70;99.90
13231;DHT22;6681;53.254;10.398;2023-11-21T00:44:10;8.70;99.90
13231;DHT22;6681;53.254;10.398;2023-11-21T00:46:36;8.90;99.90
13231;DHT22;6681;53.254;10.398;2023-11-21T00:49:02;8.80;99.90
13231;DHT22;6681;53.254;10.398;2023-11-21T00:51:29;8.60;99.90
13231;DHT22;6681;53.254;10.398;2023-11-21T00:53:55;8.50;99.90
13231;DHT22;6681;53.254;10.398;2023-11-21T00:56:21;8.50;99.90
13231;DHT22;6681;53.254;10.398;2023-11-21T00:58:47;8.50;99.90
13231;DHT22;6681;53.254;10.398;2023-11-21T01:01:16;8.40;99.90
13231;DHT22;6681;53.254;10.398;2023-11-21T01:03:41;8.70;99.90
13231;DHT22;6681;53.254;10.398;2023-11-21T01:06:08;8.30;99.90
13231;DHT22;6681;53.254;10.398;2023-11-21T01:08:34;8.30;99.90
13231;DHT22;6681;53.254;10.398;2023-11-21T01:11:00;8.30;99.90
13231;DHT22;6681;53.254;10.398;2023-11-21T01:13:25;8.20;99.90
13231;DHT22;6681;53.254;10.398;2023-11-21T01:15:55;8.30;99.90
13231;DHT22;6681;53.254;10.398;2023-11-21T01:18:21;8.30;99.90
13231;DHT22;6681;53.254;10.398;2023-11-21T01:20:46;8.20;99.90
13231;DHT22;6681;53.254;10.398;2023-11-21T01:23:13;8.20;99.90
13231;DHT22;6681;53.254;10.398;2023-11-21T01:25:39;8.20;99.90
13231;DHT22;6681;53.254;10.398;2023-11-21T01:28:04;8.10;99.90
13231;DHT22;6681;53.254;10.398;2023-11-21T01:30:31;8.00;99.90
13231;DHT22;6681;53.254;10.398;2023-11-21T01:32:58;8.00;99.90
13231;DHT22;6681;53.254;10.398;2023-11-21T01:35:23;9.30;99.90
13231;DHT22;6681;53.254;10.398;2023-11-21T01:37:49;8.10;99.90
13231;DHT22;6681;53.254;10.398;2023-11-21T01:40:14;8.10;99.90
13231;DHT22;6681;53.254;10.398;2023-11-21T01:42:41;8.80;99.90
13231;DHT22;6681;53.254;10.398;2023-11-21T01:45:09;8.10;99.90
13231;DHT22;6681;53.254;10.398;2023-11-21T01:47:35;8.00;99.90
13231;DHT22;6681;53.254;10.398;2023-11-21T01:50:02;8.00;99.90
13231;DHT22;6681;53.254;10.398;2023-11-21T01:52:34;7.90;99.90
13231;DHT22;6681;53.254;10.398;2023-11-21T01:55:00;7.90;99.90
13231;DHT22;6681;53.254;10.398;2023-11-21T01:57:26;8.20;99.90
13231;DHT22;6681;53.254;10.398;2023-11-21T01:59:54;7.70;99.90
13231;DHT22;6681;53.254;10.398;2023-11-21T02:02:20;7.70;99.90
13231;DHT22;6681;53.254;10.398;2023-11-21T02:04:46;7.90;99.90
13231;DHT22;6681;53.254;10.398;2023-11-21T02:07:11;8.50;99.90
13231;DHT22;6681;53.254;10.398;2023-11-21T02:09:37;7.40;99.90
13231;DHT22;6681;53.254;10.398;2023-11-21T02:12:04;7.30;99.90
13231;DHT22;6681;53.254;10.398;2023-11-21T02:14:30;7.40;99.90
13231;DHT22;6681;53.254;10.398;2023-11-21T02:16:57;8.30;99.90
13231;DHT22;6681;53.254;10.398;2023-11-21T02:19:23;7.60;99.90
13231;DHT22;6681;53.254;10.398;2023-11-21T02:21:52;7.40;99.90
13231;DHT22;6681;53.254;10.398;2023-11-21T02:24:19;7.40;99.90
13231;DHT22;6681;53.254;10.398;2023-11-21T02:26:45;7.60;99.90
13231;DHT22;6681;53.254;10.398;2023-11-21T02:29:11;7.30;99.90
13231;DHT22;6681;53.254;10.398;2023-11-21T02:31:38;7.30;99.90
13231;DHT22;6681;53.254;10.398;2023-11-21T02:34:16;7.20;99.90
13231;DHT22;6681;53.254;10.398;2023-11-21T02:36:43;7.80;99.90
13231;DHT22;6681;53.254;10.398;2023-11-21T02:39:09;7.30;99.90
13231;DHT22;6681;53.254;10.398;2023-11-21T02:41:39;7.20;99.90
13231;DHT22;6681;53.254;10.398;2023-11-21T02:44:05;7.30;99.90
13231;DHT22;6681;53.254;10.398;2023-11-21T02:46:34;7.30;99.90
13231;DHT22;6681;53.254;10.398;2023-11-21T02:49:04;7.80;99.90
13231;DHT22;6681;53.254;10.398;2023-11-21T02:51:32;7.30;99.90
13231;DHT22;6681;53.254;10.398;2023-11-21T02:53:57;7.40;99.90
13231;DHT22;6681;53.254;10.398;2023-11-21T02:56:27;7.40;99.90
13231;DHT22;6681;53.254;10.398;2023-11-21T02:58:56;8.20;99.90
13231;DHT22;6681;53.254;10.398;2023-11-21T03:01:22;7.30;99.90
13231;DHT22;6681;53.254;10.398;2023-11-21T03:03:49;7.90;99.90
13231;DHT22;6681;53.254;10.398;2023-11-21T03:06:17;7.20;99.90
13231;DHT22;6681;53.254;10.398;2023-11-21T03:08:43;7.30;99.90
13231;DHT22;6681;53.254;10.398;2023-11-21T03:11:08;7.20;99.90
13231;DHT22;6681;53.254;10.398;2023-11-21T03:13:34;7.30;99.90
13231;DHT22;6681;53.254;10.398;2023-11-21T03:15:59;7.10;99.90
13231;DHT22;6681;53.254;10.398;2023-11-21T03:18:25;7.10;99.90
13231;DHT22;6681;53.254;10.398;2023-11-21T03:20:52;7.10;99.90
13231;DHT22;6681;53.254;10.398;2023-11-21T03:23:18;8.00;99.90
13231;DHT22;6681;53.254;10.398;2023-11-21T03:25:44;7.10;99.90
13231;DHT22;6681;53.254;10.398;2023-11-21T03:28:09;7.20;99.90
13231;DHT22;6681;53.254;10.398;2023-11-21T03:30:35;7.10;99.90
13231;DHT22;6681;53.254;10.398;2023-11-21T03:33:01;7.30;99.90
13231;DHT22;6681;53.254;10.398;2023-11-21T03:35:26;7.10;99.90
13231;DHT22;6681;53.254;10.398;2023-11-21T03:37:53;7.10;99.90
13231;DHT22;6681;53.254;10.398;2023-11-21T03:40:18;7.00;99.90
13231;DHT22;6681;53.254;10.398;2023-11-21T03:42:44;8.10;99.90
13231;DHT22;6681;53.254;10.398;2023-11-21T03:45:10;8.80;99.90
13231;DHT22;6681;53.254;10.398;2023-11-21T03:47:37;6.90;99.90
13231;DHT22;6681;53.254;10.398;2023-11-21T03:50:03;7.00;99.90
13231;DHT22;6681;53.254;10.398;2023-11-21T03:52:29;6.90;99.90
13231;DHT22;6681;53.254;10.398;2023-11-21T03:54:55;7.20;99.90
13231;DHT22;6681;53.254;10.398;2023-11-21T03:57:21;8.80;99.90
13231;DHT22;6681;53.254;10.398;2023-11-21T03:59:46;8.60;99.90
13231;DHT22;6681;53.254;10.398;2023-11-21T04:02:12;6.90;99.90
13231;DHT22;6681;53.254;10.398;2023-11-21T04:04:38;6.90;99.90
13231;DHT22;6681;53.254;10.398;2023-11-21T04:07:04;7.70;99.90
13231;DHT22;6681;53.254;10.398;2023-11-21T04:09:29;6.80;99.90
13231;DHT22;6681;53.254;10.398;2023-11-21T04:11:55;6.80;99.90
13231;DHT22;6681;53.254;10.398;2023-11-21T04:14:22;6.90;99.90
13231;DHT22;6681;53.254;10.398;2023-11-21T04:16:47;7.60;99.90
13231;DHT22;6681;53.254;10.398;2023-11-21T04:19:14;6.90;99.90
13231;DHT22;6681;53.254;10.398;2023-11-21T04:21:43;6.90;99.90
13231;DHT22;6681;53.254;10.398;2023-11-21T04:24:08;7.70;99.90
13231;DHT22;6681;53.254;10.398;2023-11-21T04:26:34;6.90;99.90
13231;DHT22;6681;53.254;10.398;2023-11-21T04:29:00;6.90;99.90
13231;DHT22;6681;53.254;10.398;2023-11-21T04:31:25;6.90;99.90
13231;DHT22;6681;53.254;10.398;2023-11-21T04:33:51;8.90;99.90
13231;DHT22;6681;53.254;10.398;2023-11-21T04:36:17;7.00;99.90
13231;DHT22;6681;53.254;10.398;2023-11-21T04:38:42;6.80;99.90
13231;DHT22;6681;53.254;10.398;2023-11-21T04:41:08;6.80;99.90
13231;DHT22;6681;53.254;10.398;2023-11-21T04:43:34;6.80;99.90
13231;DHT22;6681;53.254;10.398;2023-11-21T04:45:59;6.80;99.90
13231;DHT22;6681;53.254;10.398;2023-11-21T04:48:25;7.60;99.90
13231;DHT22;6681;53.254;10.398;2023-11-21T04:50:51;7.30;99.90
13231;DHT22;6681;53.254;10.398;2023-11-21T04:53:17;6.80;99.90
13231;DHT22;6681;53.254;10.398;2023-11-21T04:55:43;6.80;99.90
13231;DHT22;6681;53.254;10.398;2023-11-21T04:58:09;8.30;99.90
13231;DHT22;6681;53.254;10.398;2023-11-21T05:00:35;6.80;99.90
13231;DHT22;6681;53.254;10.398;2023-11-21T05:03:02;6.80;99.90
13231;DHT22;6681;53.254;10.398;2023-11-21T05:05:28;6.70;99.90
13231;DHT22;6681;53.254;10.398;2023-11-21T05:07:55;7.20;99.90
13231;DHT22;6681;53.254;10.398;2023-11-21T05:10:21;7.10;99.90
13231;DHT22;6681;53.254;10.398;2023-11-21T05:12:48;6.70;99.90
13231;DHT22;6681;53.254;10.398;2023-11-21T05:15:16;8.30;99.90
13231;DHT22;6681;53.254;10.398;2023-11-21T05:17:46;6.70;99.90
13231;DHT22;6681;53.254;10.398;2023-11-21T05:20:15;6.70;99.90
13231;DHT22;6681;53.254;10.398;2023-11-21T05:22:46;7.30;99.90
13231;DHT22;6681;53.254;10.398;2023-11-21T05:25:13;6.70;99.90
13231;DHT22;6681;53.254;10.398;2023-11-21T05:27:39;6.80;99.90
13231;DHT22;6681;53.254;10.398;2023-11-21T05:30:05;7.30;99.90
13231;DHT22;6681;53.254;10.398;2023-11-21T05:32:32;6.60;99.90
13231;DHT22;6681;53.254;10.398;2023-11-21T05:34:58;6.70;99.90
13231;DHT22;6681;53.254;10.398;2023-11-21T05:37:24;6.60;99.90
13231;DHT22;6681;53.254;10.398;2023-11-21T05:39:52;6.60;99.90
13231;DHT22;6681;53.254;10.398;2023-11-21T05:42:18;6.60;99.90
13231;DHT22;6681;53.254;10.398;2023-11-21T05:44:46;7.30;99.90
13231;DHT22;6681;53.254;10.398;2023-11-21T05:47:12;6.60;99.90
13231;DHT22;6681;53.254;10.398;2023-11-21T05:49:39;6.80;99.90
13231;DHT22;6681;53.254;10.398;2023-11-21T05:52:04;6.60;99.90
13231;DHT22;6681;53.254;10.398;2023-11-21T05:54:31;6.60;99.90
13231;DHT22;6681;53.254;10.398;2023-11-21T05:56:56;8.60;99.90
13231;DHT22;6681;53.254;10.398;2023-11-21T05:59:23;6.70;99.90
13231;DHT22;6681;53.254;10.398;2023-11-21T06:01:48;6.70;99.90
13231;DHT22;6681;53.254;10.398;2023-11-21T06:04:14;6.60;99.90
13231;DHT22;6681;53.254;10.398;2023-11-21T06:06:40;6.60;99.90
13231;DHT22;6681;53.254;10.398;2023-11-21T06:09:05;6.60;99.90
13231;DHT22;6681;53.254;10.398;2023-11-21T06:11:33;7.00;99.90
13231;DHT22;6681;53.254;10.398;2023-11-21T06:13:59;7.10;99.90
13231;DHT22;6681;53.254;10.398;2023-11-21T06:16:25;6.70;99.90
13231;DHT22;6681;53.254;10.398;2023-11-21T06:18:51;6.70;99.90
13231;DHT22;6681;53.254;10.398;2023-11-21T06:21:20;8.20;99.90
13231;DHT22;6681;53.254;10.398;2023-11-21T06:23:45;6.70;99.90
13231;DHT22;6681;53.254;10.398;2023-11-21T06:26:11;6.70;99.90
13231;DHT22;6681;53.254;10.398;2023-11-21T06:28:38;6.70;99.90
13231;DHT22;6681;53.254;10.398;2023-11-21T06:31:04;6.80;99.90
13231;DHT22;6681;53.254;10.398;2023-11-21T06:33:33;6.70;99.90
13231;DHT22;6681;53.254;10.398;2023-11-21T06:35:59;6.60;99.90
13231;DHT22;6681;53.254;10.398;2023-11-21T06:38:28;7.00;99.90
13231;DHT22;6681;53.254;10.398;2023-11-21T06:40:56;6.60;99.90
13231;DHT22;6681;53.254;10.398;2023-11-21T06:43:23;7.00;99.90
13231;DHT22;6681;53.254;10.398;2023-11-21T06:45:49;6.60;99.90
13231;DHT22;6681;53.254;10.398;2023-11-21T06:48:14;7.50;99.90
13231;DHT22;6681;53.254;10.398;2023-11-21T06:50:40;7.70;99.90
13231;DHT22;6681;53.254;10.398;2023-11-21T06:53:07;6.60;99.90
13231;DHT22;6681;53.254;10.398;2023-11-21T06:55:33;6.60;99.90
13231;DHT22;6681;53.254;10.398;2023-11-21T06:58:00;6.60;99.90
13231;DHT22;6681;53.254;10.398;2023-11-21T07:00:26;6.80;99.90
13231;DHT22;6681;53.254;10.398;2023-11-21T07:02:54;6.60;99.90
13231;DHT22;6681;53.254;10.398;2023-11-21T07:05:21;6.70;99.90
13231;DHT22;6681;53.254;10.398;2023-11-21T07:07:47;7.50;99.90
13231;DHT22;6681;53.254;10.398;2023-11-21T07:10:14;6.50;99.90
13231;DHT22;6681;53.254;10.398;2023-11-21T07:12:40;6.50;99.90
13231;DHT22;6681;53.254;10.398;2023-11-21T07:15:06;6.50;99.90
13231;DHT22;6681;53.254;10.398;2023-11-21T07:17:35;6.50;99.90
13231;DHT22;6681;53.254;10.398;2023-11-21T07:20:04;6.50;99.90
13231;DHT22;6681;53.254;10.398;2023-11-21T07:22:29;6.50;99.90
13231;DHT22;6681;53.254;10.398;2023-11-21T07:24:55;6.60;99.90
13231;DHT22;6681;53.254;10.398;2023-11-21T07:27:24;6.70;99.90
13231;DHT22;6681;53.254;10.398;2023-11-21T07:29:49;7.10;99.90
13231;DHT22;6681;53.254;10.398;2023-11-21T07:32:15;6.50;99.90
13231;DHT22;6681;53.254;10.398;2023-11-21T07:34:41;6.50;99.90
13231;DHT22;6681;53.254;10.398;2023-11-21T07:37:07;6.50;99.90
13231;DHT22;6681;53.254;10.398;2023-11-21T07:39:34;6.50;99.90
13231;DHT22;6681;53.254;10.398;2023-11-21T07:42:01;6.40;99.90
13231;DHT22;6681;53.254;10.398;2023-11-21T07:44:28;6.40;99.90
13231;DHT22;6681;53.254;10.398;2023-11-21T07:46:54;7.70;99.90
13231;DHT22;6681;53.254;10.398;2023-11-21T07:49:24;6.40;99.90
13231;DHT22;6681;53.254;10.398;2023-11-21T07:51:49;6.40;99.90
13231;DHT22;6681;53.254;10.398;2023-11-21T07:54:15;8.10;99.90
13231;DHT22;6681;53.254;10.398;2023-11-21T07:56:41;6.40;99.90
13231;DHT22;6681;53.254;10.398;2023-11-21T07:59:08;6.50;99.90
13231;DHT22;6681;53.254;10.398;2023-11-21T08:01:33;6.40;99.90
13231;DHT22;6681;53.254;10.398;2023-11-21T08:03:59;6.50;99.90
13231;DHT22;6681;53.254;10.398;2023-11-21T08:06:31;6.50;99.90
13231;DHT22;6681;53.254;10.398;2023-11-21T08:08:58;6.50;99.90
13231;DHT22;6681;53.254;10.398;2023-11-21T08:11:24;6.50;99.90
13231;DHT22;6681;53.254;10.398;2023-11-21T08:13:49;6.60;99.90
13231;DHT22;6681;53.254;10.398;2023-11-21T08:16:15;7.00;99.90
13231;DHT22;6681;53.254;10.398;2023-11-21T08:18:42;6.60;99.90
13231;DHT22;6681;53.254;10.398;2023-11-21T08:21:07;6.90;99.90
13231;DHT22;6681;53.254;10.398;2023-11-21T08:23:33;7.50;99.90
13231;DHT22;6681;53.254;10.398;2023-11-21T08:26:00;6.60;99.90
13231;DHT22;6681;53.254;10.398;2023-11-21T08:28:27;6.60;99.90
13231;DHT22;6681;53.254;10.398;2023-11-21T08:30:53;6.80;99.90
13231;DHT22;6681;53.254;10.398;2023-11-21T08:33:19;6.60;99.90
13231;DHT22;6681;53.254;10.398;2023-11-21T08:35:45;6.60;99.90
13231;DHT22;6681;53.254;10.398;2023-11-21T08:38:11;6.60;99.90
13231;DHT22;6681;53.254;10.398;2023-11-21T08:40:37;6.70;99.90
13231;DHT22;6681;53.254;10.398;2023-11-21T08:43:03;6.60;99.90
13231;DHT22;6681;53.254;10.398;2023-11-21T08:45:30;6.60;99.90
13231;DHT22;6681;53.254;10.398;2023-11-21T08:47:56;6.90;99.90
13231;DHT22;6681;53.254;10.398;2023-11-21T08:50:22;7.30;99.90
13231;DHT22;6681;53.254;10.398;2023-11-21T08:52:48;6.70;99.90
13231;DHT22;6681;53.254;10.398;2023-11-21T08:55:13;6.70;99.90
13231;DHT22;6681;53.254;10.398;2023-11-21T08:57:40;6.70;99.90
13231;DHT22;6681;53.254;10.398;2023-11-21T09:00:07;6.70;99.90
13231;DHT22;6681;53.254;10.398;2023-11-21T09:02:40;6.70;99.90
13231;DHT22;6681;53.254;10.398;2023-11-21T09:05:09;6.70;99.90
13231;DHT22;6681;53.254;10.398;2023-11-21T09:07:39;6.90;99.90
13231;DHT22;6681;53.254;10.398;2023-11-21T09:10:06;6.80;99.90
13231;DHT22;6681;53.254;10.398;2023-11-21T09:12:33;6.80;99.90
13231;DHT22;6681;53.254;10.398;2023-11-21T09:15:03;6.80;99.90
13231;DHT22;6681;53.254;10.398;2023-11-21T09:17:30;6.80;99.90
13231;DHT22;6681;53.254;10.398;2023-11-21T09:19:55;8.00;99.90
13231;DHT22;6681;53.254;10.398;2023-11-21T09:22:22;6.80;99.90
13231;DHT22;6681;53.254;10.398;2023-11-21T09:24:50;6.80;99.90
13231;DHT22;6681;53.254;10.398;2023-11-21T09:27:16;6.80;99.90
13231;DHT22;6681;53.254;10.398;2023-11-21T09:29:43;7.50;99.90
13231;DHT22;6681;53.254;10.398;2023-11-21T09:32:08;8.40;99.90
13231;DHT22;6681;53.254;10.398;2023-11-21T09:34:38;6.70;99.90
13231;DHT22;6681;53.254;10.398;2023-11-21T09:37:05;6.80;99.90
13231;DHT22;6681;53.254;10.398;2023-11-21T09:39:35;6.80;99.90
13231;DHT22;6681;53.254;10.398;2023-11-21T09:42:14;7.60;99.90
13231;DHT22;6681;53.254;10.398;2023-11-21T09:47:24;6.90;99.90
13231;DHT22;6681;53.254;10.398;2023-11-21T09:49:49;7.00;99.90
13231;DHT22;6681;53.254;10.398;2023-11-21T09:52:26;7.00;99.90
13231;DHT22;6681;53.254;10.398;2023-11-21T09:54:53;6.90;99.90
13231;DHT22;6681;53.254;10.398;2023-11-21T09:57:23;6.90;99.90
13231;DHT22;6681;53.254;10.398;2023-11-21T09:59:53;6.90;99.90
13231;DHT22;6681;53.254;10.398;2023-11-21T10:02:33;7.00;99.90
13231;DHT22;6681;53.254;10.398;2023-11-21T10:05:02;6.90;99.90
13231;DHT22;6681;53.254;10.398;2023-11-21T10:07:29;6.90;99.90
13231;DHT22;6681;53.254;10.398;2023-11-21T10:09:57;7.30;99.90
13231;DHT22;6681;53.254;10.398;2023-11-21T10:12:26;7.00;99.90
13231;DHT22;6681;53.254;10.398;2023-11-21T10:14:54;7.00;99.90
13231;DHT22;6681;53.254;10.398;2023-11-21T10:17:24;7.00;99.90
13231;DHT22;6681;53.254;10.398;2023-11-21T10:19:53;7.10;99.90
13231;DHT22;6681;53.254;10.398;2023-11-21T10:22:20;7.00;99.90
13231;DHT22;6681;53.254;10.398;2023-11-21T10:24:46;7.00;99.90
13231;DHT22;6681;53.254;10.398;2023-11-21T10:27:11;7.00;99.90
13231;DHT22;6681;53.254;10.398;2023-11-21T10:29:39;7.10;99.90
13231;DHT22;6681;53.254;10.398;2023-11-21T10:32:11;7.00;99.90
13231;DHT22;6681;53.254;10.398;2023-11-21T10:34:37;7.00;99.90
13231;DHT22;6681;53.254;10.398;2023-11-21T10:37:11;7.00;99.90
13231;DHT22;6681;53.254;10.398;2023-11-21T10:39:38;7.00;99.90
13231;DHT22;6681;53.254;10.398;2023-11-21T10:42:04;7.10;99.90
13231;DHT22;6681;53.254;10.398;2023-11-21T10:44:34;7.10;99.90
13231;DHT22;6681;53.254;10.398;2023-11-21T10:47:00;7.10;99.90
13231;DHT22;6681;53.254;10.398;2023-11-21T10:49:26;7.20;99.90
13231;DHT22;6681;53.254;10.398;2023-11-21T10:51:55;7.20;99.90
13231;DHT22;6681;53.254;10.398;2023-11-21T10:54:22;7.20;99.90
13231;DHT22;6681;53.254;10.398;2023-11-21T10:56:54;7.60;99.90
13231;DHT22;6681;53.254;10.398;2023-11-21T10:59:22;7.40;99.90
13231;DHT22;6681;53.254;10.398;2023-11-21T11:01:50;7.30;99.90
13231;DHT22;6681;53.254;10.398;2023-11-21T11:04:19;7.30;99.90
13231;DHT22;6681;53.254;10.398;2023-11-21T11:06:48;7.20;98.30
13231;DHT22;6681;53.254;10.398;2023-11-21T11:09:17;7.20;99.90
13231;DHT22;6681;53.254;10.398;2023-11-21T11:11:43;7.20;99.90
13231;DHT22;6681;53.254;10.398;2023-11-21T11:14:13;7.10;98.60
13231;DHT22;6681;53.254;10.398;2023-11-21T11:16:40;7.00;99.70
13231;DHT22;6681;53.254;10.398;2023-11-21T11:19:09;7.10;99.90
13231;DHT22;6681;53.254;10.398;2023-11-21T11:27:40;7.20;99.90
13231;DHT22;6681;53.254;10.398;2023-11-21T11:38:13;7.30;99.90
13231;DHT22;6681;53.254;10.398;2023-11-21T11:40:46;7.50;99.90
13231;DHT22;6681;53.254;10.398;2023-11-21T11:43:12;7.50;99.90
13231;DHT22;6681;53.254;10.398;2023-11-21T11:45:38;7.50;99.90
13231;DHT22;6681;53.254;10.398;2023-11-21T11:48:08;7.50;99.90
13231;DHT22;6681;53.254;10.398;2023-11-21T11:51:13;7.40;99.90
13231;DHT22;6681;53.254;10.398;2023-11-21T11:53:43;7.40;96.50
13231;DHT22;6681;53.254;10.398;2023-11-21T11:58:49;7.20;91.00
13231;DHT22;6681;53.254;10.398;2023-11-21T12:01:19;7.10;85.70
13231;DHT22;6681;53.254;10.398;2023-11-21T12:04:10;7.10;85.00
13231;DHT22;6681;53.254;10.398;2023-11-21T12:06:36;7.20;95.40
13231;DHT22;6681;53.254;10.398;2023-11-21T12:09:02;6.90;89.50
13231;DHT22;6681;53.254;10.398;2023-11-21T12:11:31;6.90;90.80
13231;DHT22;6681;53.254;10.398;2023-11-21T12:13:58;6.90;92.20
13231;DHT22;6681;53.254;10.398;2023-11-21T12:16:27;7.00;96.90
13231;DHT22;6681;53.254;10.398;2023-11-21T12:18:53;7.30;90.20
13231;DHT22;6681;53.254;10.398;2023-11-21T12:21:20;6.90;88.40
13231;DHT22;6681;53.254;10.398;2023-11-21T12:23:46;6.90;89.10
13231;DHT22;6681;53.254;10.398;2023-11-21T12:26:13;6.90;89.60
13231;DHT22;6681;53.254;10.398;2023-11-21T12:28:39;6.90;88.90
13231;DHT22;6681;53.254;10.398;2023-11-21T12:31:05;6.80;90.70
13231;DHT22;6681;53.254;10.398;2023-11-21T12:33:33;6.80;85.60
13231;DHT22;6681;53.254;10.398;2023-11-21T12:35:58;7.20;94.00
13231;DHT22;6681;53.254;10.398;2023-11-21T12:38:24;6.80;87.50
13231;DHT22;6681;53.254;10.398;2023-11-21T12:40:50;6.80;90.60
13231;DHT22;6681;53.254;10.398;2023-11-21T12:43:17;6.80;90.90
13231;DHT22;6681;53.254;10.398;2023-11-21T12:45:46;6.80;95.60
13231;DHT22;6681;53.254;10.398;2023-11-21T12:48:11;6.90;94.20
13231;DHT22;6681;53.254;10.398;2023-11-21T12:50:38;6.90;95.20
13231;DHT22;6681;53.254;10.398;2023-11-21T12:53:09;7.00;91.60
13231;DHT22;6681;53.254;10.398;2023-11-21T12:55:37;6.80;89.70
13231;DHT22;6681;53.254;10.398;2023-11-21T12:58:05;6.80;90.10
13231;DHT22;6681;53.254;10.398;2023-11-21T13:00:40;6.80;94.10
13231;DHT22;6681;53.254;10.398;2023-11-21T13:03:09;6.90;92.80
13231;DHT22;6681;53.254;10.398;2023-11-21T13:05:36;6.80;93.20
13231;DHT22;6681;53.254;10.398;2023-11-21T13:08:08;6.80;93.80
13231;DHT22;6681;53.254;10.398;2023-11-21T13:10:36;6.80;91.80
13231;DHT22;6681;53.254;10.398;2023-11-21T13:13:09;6.90;91.30
13231;DHT22;6681;53.254;10.398;2023-11-21T13:15:39;6.80;92.40
13231;DHT22;6681;53.254;10.398;2023-11-21T13:18:06;6.80;95.20
13231;DHT22;6681;53.254;10.398;2023-11-21T13:20:32;6.80;94.50
13231;DHT22;6681;53.254;10.398;2023-11-21T13:22:59;6.80;99.90
13231;DHT22;6681;53.254;10.398;2023-11-21T13:25:26;6.80;99.90
13231;DHT22;6681;53.254;10.398;2023-11-21T13:27:58;8.90;99.90
13231;DHT22;6681;53.254;10.398;2023-11-21T13:30:25;6.80;99.90
13231;DHT22;6681;53.254;10.398;2023-11-21T13:32:59;6.80;97.30
13231;DHT22;6681;53.254;10.398;2023-11-21T13:35:32;6.90;98.10
13231;DHT22;6681;53.254;10.398;2023-11-21T13:38:21;6.90;96.00
13231;DHT22;6681;53.254;10.398;2023-11-21T13:40:53;7.30;96.90
13231;DHT22;6681;53.254;10.398;2023-11-21T13:43:25;6.90;95.70
13231;DHT22;6681;53.254;10.398;2023-11-21T13:45:53;6.90;97.40
13231;DHT22;6681;53.254;10.398;2023-11-21T13:48:49;6.90;99.90
13231;DHT22;6681;53.254;10.398;2023-11-21T13:51:22;7.00;99.90
13231;DHT22;6681;53.254;10.398;2023-11-21T13:53:55;6.80;95.60
13231;DHT22;6681;53.254;10.398;2023-11-21T13:56:21;6.80;96.10
13231;DHT22;6681;53.254;10.398;2023-11-21T13:58:51;6.90;99.40
13231;DHT22;6681;53.254;10.398;2023-11-21T14:01:22;6.80;94.90
13231;DHT22;6681;53.254;10.398;2023-11-21T14:04:01;6.80;93.40
13231;DHT22;6681;53.254;10.398;2023-11-21T14:06:35;6.70;92.30
13231;DHT22;6681;53.254;10.398;2023-11-21T14:09:10;6.70;93.30
13231;DHT22;6681;53.254;10.398;2023-11-21T14:11:39;6.70;97.90
13231;DHT22;6681;53.254;10.398;2023-11-21T14:14:04;6.60;94.70
13231;DHT22;6681;53.254;10.398;2023-11-21T14:16:31;6.60;97.60
13231;DHT22;6681;53.254;10.398;2023-11-21T14:18:56;6.90;97.90
13231;DHT22;6681;53.254;10.398;2023-11-21T14:21:29;6.70;95.90
13231;DHT22;6681;53.254;10.398;2023-11-21T14:23:55;6.70;96.00
13231;DHT22;6681;53.254;10.398;2023-11-21T14:26:21;6.70;94.00
13231;DHT22;6681;53.254;10.398;2023-11-21T14:28:46;6.90;95.70
13231;DHT22;6681;53.254;10.398;2023-11-21T14:31:14;6.70;97.30
13231;DHT22;6681;53.254;10.398;2023-11-21T14:33:45;6.70;99.70
13231;DHT22;6681;53.254;10.398;2023-11-21T14:36:11;6.70;96.40
13231;DHT22;6681;53.254;10.398;2023-11-21T14:38:37;6.70;99.60
13231;DHT22;6681;53.254;10.398;2023-11-21T14:41:07;6.70;99.80
13231;DHT22;6681;53.254;10.398;2023-11-21T14:43:34;6.70;98.80
13231;DHT22;6681;53.254;10.398;2023-11-21T14:46:01;6.70;99.80
13231;DHT22;6681;53.254;10.398;2023-11-21T14:48:29;7.00;99.90
13231;DHT22;6681;53.254;10.398;2023-11-21T14:51:10;6.80;97.00
13231;DHT22;6681;53.254;10.398;2023-11-21T14:53:55;6.80;99.90
13231;DHT22;6681;53.254;10.398;2023-11-21T14:56:24;6.70;99.90
13231;DHT22;6681;53.254;10.398;2023-11-21T14:58:59;6.80;96.70
13231;DHT22;6681;53.254;10.398;2023-11-21T15:01:34;6.80;99.80
13231;DHT22;6681;53.254;10.398;2023-11-21T15:04:19;6.80;99.90
13231;DHT22;6681;53.254;10.398;2023-11-21T15:07:05;6.90;99.90
13231;DHT22;6681;53.254;10.398;2023-11-21T15:09:31;7.30;99.90
13231;DHT22;6681;53.254;10.398;2023-11-21T15:11:57;6.80;99.90
13231;DHT22;6681;53.254;10.398;2023-11-21T15:14:29;6.80;99.90
13231;DHT22;6681;53.254;10.398;2023-11-21T15:16:58;6.80;98.80
13231;DHT22;6681;53.254;10.398;2023-11-21T15:19:28;6.80;99.50
13231;DHT22;6681;53.254;10.398;2023-11-21T15:21:54;6.70;96.40
13231;DHT22;6681;53.254;10.398;2023-11-21T15:24:23;6.70;97.60
13231;DHT22;6681;53.254;10.398;2023-11-21T15:26:48;6.70;97.60
13231;DHT22;6681;53.254;10.398;2023-11-21T15:29:15;6.60;91.10
13231;DHT22;6681;53.254;10.398;2023-11-21T15:31:41;6.60;92.40
13231;DHT22;6681;53.254;10.398;2023-11-21T15:34:13;6.60;93.60
13231;DHT22;6681;53.254;10.398;2023-11-21T15:36:38;6.80;93.60
13231;DHT22;6681;53.254;10.398;2023-11-21T15:39:04;6.50;93.00
13231;DHT22;6681;53.254;10.398;2023-11-21T15:41:30;6.50;90.40
13231;DHT22;6681;53.254;10.398;2023-11-21T15:43:55;7.20;90.90
13231;DHT22;6681;53.254;10.398;2023-11-21T15:46:22;6.50;93.70
13231;DHT22;6681;53.254;10.398;2023-11-21T15:48:47;6.60;93.90
13231;DHT22;6681;53.254;10.398;2023-11-21T15:51:20;7.00;94.20
13231;DHT22;6681;53.254;10.398;2023-11-21T15:53:46;6.90;96.30
13231;DHT22;6681;53.254;10.398;2023-11-21T15:56:11;8.40;99.90
13231;DHT22;6681;53.254;10.398;2023-11-21T15:58:41;6.50;99.90
13231;DHT22;6681;53.254;10.398;2023-11-21T16:01:09;6.50;99.90
13231;DHT22;6681;53.254;10.398;2023-11-21T16:03:35;6.50;98.60
13231;DHT22;6681;53.254;10.398;2023-11-21T16:06:01;6.40;99.20